Time;durP1;ratioP1;P1;durP2;ratioP2;P2;SDS_P1;SDS_P2;PMS_P1;PMS_P2;Temp;Humidity;BMP_temperature;BMP_pressure;BME280_temperature;BME280_humidity;BME280_pressure;Samples;Min_cycle;Max_cycle;Signal;HPM_P1;HPM_P2
2021/04/06 00:01:35;;;;;;;1.83;1.63;;;;;;;0.21;86.14;99591.78;5070090;28;20228;-81
2021/04/06 00:04:05;;;;;;;1.87;1.60;;;;;;;0.30;85.58;99585.00;5056803;28;20611;-83
2021/04/06 00:06:33;;;;;;;1.70;1.60;;;;;;;0.20;85.93;99588.34;5056321;28;20248;-81
2021/04/06 00:09:01;;;;;;;1.57;1.47;;;;;;;0.17;86.12;99586.59;5070168;28;20204;-81
2021/04/06 00:11:28;;;;;;;3.23;2.00;;;;;;;0.29;86.09;99585.00;5073537;28;20261;-84
2021/04/06 00:13:55;;;;;;;2.20;2.00;;;;;;;0.37;86.44;99588.47;5058673;28;20207;-83
2021/04/06 00:16:22;;;;;;;2.50;2.03;;;;;;;0.36;85.74;99585.06;5055873;28;20665;-82
2021/04/06 00:18:51;;;;;;;1.90;1.80;;;;;;;0.37;85.73;99583.34;5068596;28;20247;-84
2021/04/06 00:21:18;;;;;;;2.20;2.10;;;;;;;0.39;85.42;99590.19;5073828;28;20232;-85
2021/04/06 00:23:47;;;;;;;2.60;2.00;;;;;;;0.39;84.82;99574.81;5077045;28;20205;-84
2021/04/06 00:26:14;;;;;;;2.20;2.03;;;;;;;0.26;85.37;99575.56;5075634;28;20214;-84
2021/04/06 00:28:42;;;;;;;2.47;2.07;;;;;;;0.28;85.00;99585.81;5067575;28;20205;-83
2021/04/06 00:31:11;;;;;;;4.10;2.37;;;;;;;0.15;85.29;99578.03;5075434;28;20225;-83
2021/04/06 00:33:41;;;;;;;2.83;2.47;;;;;;;0.05;86.02;99578.78;5056717;28;20510;-83
2021/04/06 00:36:08;;;;;;;2.60;2.40;;;;;;;0.20;85.80;99583.22;5058213;28;20212;-84
2021/04/06 00:38:38;;;;;;;3.50;2.70;;;;;;;0.17;85.92;99573.75;5066683;28;20682;-83
2021/04/06 00:41:06;;;;;;;2.70;2.50;;;;;;;0.04;86.32;99571.94;5075198;28;20229;-84
2021/04/06 00:43:34;;;;;;;2.40;2.20;;;;;;;-0.10;86.63;99576.06;5066204;28;20204;-82
2021/04/06 00:46:02;;;;;;;2.73;2.53;;;;;;;-0.08;87.01;99587.19;5076263;28;20202;-83
2021/04/06 00:48:30;;;;;;;2.87;2.30;;;;;;;-0.02;87.11;99588.13;5065195;28;20202;-83
2021/04/06 00:51:09;;;;;;;2.90;2.57;;;;;;;0.03;87.32;99597.59;5076656;28;20208;-83
2021/04/06 00:53:49;;;;;;;2.63;2.43;;;;;;;0.06;87.11;99582.19;5071540;28;20240;-84
2021/04/06 00:56:17;;;;;;;3.20;2.90;;;;;;;-0.06;87.13;99588.06;5074689;28;20202;-83
2021/04/06 00:58:43;;;;;;;3.70;2.50;;;;;;;0.01;86.99;99592.44;5067893;28;20571;-81
2021/04/06 01:01:10;;;;;;;2.80;2.60;;;;;;;-0.14;87.61;99595.72;5074404;28;20236;-82
2021/04/06 01:03:37;;;;;;;3.40;3.10;;;;;;;-0.33;88.31;99592.06;5066124;28;20725;-82
2021/04/06 01:06:07;;;;;;;3.67;3.37;;;;;;;-0.21;88.47;99592.19;5078258;28;20205;-83
2021/04/06 01:08:34;;;;;;;3.80;3.50;;;;;;;-0.34;88.60;99590.34;5068672;28;20207;-84
2021/04/06 01:11:00;;;;;;;3.67;3.37;;;;;;;-0.38;89.12;99592.84;5099483;28;20213;-84
2021/04/06 01:13:27;;;;;;;3.17;2.97;;;;;;;-0.26;88.93;99593.88;5088302;28;20213;-84
2021/04/06 01:15:55;;;;;;;4.13;3.83;;;;;;;-0.31;89.45;99594.66;5060324;28;20492;-83
2021/04/06 01:18:21;;;;;;;4.57;4.17;;;;;;;-0.43;90.56;99601.34;5069622;28;20208;-84
2021/04/06 01:20:48;;;;;;;3.80;3.50;;;;;;;-0.48;91.00;99605.56;5080381;28;20252;-82
2021/04/06 01:23:16;;;;;;;3.07;2.73;;;;;;;-0.66;91.73;99608.75;5068341;28;20202;-83
2021/04/06 01:25:43;;;;;;;3.13;2.90;;;;;;;-0.60;91.79;99607.97;5078375;28;20248;-84
2021/04/06 01:28:11;;;;;;;3.57;3.27;;;;;;;-0.68;92.23;99615.56;5076134;28;20578;-82
2021/04/06 01:30:45;;;;;;;2.80;2.30;;;;;;;-0.74;92.55;99617.19;5071076;28;20198;-83
2021/04/06 01:33:13;;;;;;;3.20;2.87;;;;;;;-0.75;92.77;99624.03;5067994;28;20231;-83
2021/04/06 01:35:43;;;;;;;2.13;1.90;;;;;;;-0.76;91.82;99616.31;5078666;28;20205;-83
2021/04/06 01:38:10;;;;;;;1.67;1.57;;;;;;;-0.83;91.34;99618.78;5069477;28;20198;-83
2021/04/06 01:40:36;;;;;;;1.23;0.70;;;;;;;-0.87;89.92;99623.88;5078262;28;20229;-82
2021/04/06 01:43:03;;;;;;;0.80;0.80;;;;;;;-0.97;88.87;99624.53;5075463;28;20224;-83
2021/04/06 01:45:30;;;;;;;0.60;0.60;;;;;;;-1.08;88.59;99632.09;5080351;28;20525;-81
2021/04/06 01:47:56;;;;;;;1.30;0.60;;;;;;;-1.12;88.92;99643.13;5070934;28;20198;-85
2021/04/06 01:50:23;;;;;;;0.70;0.50;;;;;;;-1.10;89.10;99638.88;5060369;28;20205;-82
2021/04/06 01:52:52;;;;;;;1.90;0.43;;;;;;;-1.05;89.12;99645.81;5069196;28;20239;-84
2021/04/06 01:55:29;;;;;;;0.80;0.60;;;;;;;-1.10;89.31;99647.41;5079122;28;20208;-83
2021/04/06 01:57:56;;;;;;;0.50;0.50;;;;;;;-1.13;89.63;99649.97;5070199;28;20634;-83
2021/04/06 02:00:28;;;;;;;1.03;0.40;;;;;;;-1.10;89.43;99647.41;5074541;28;20248;-83
2021/04/06 02:02:58;;;;;;;1.33;0.40;;;;;;;-1.06;89.92;99653.47;5069100;28;20222;-84
2021/04/06 02:05:24;;;;;;;2.20;2.10;;;;;;;-1.12;89.77;99661.06;5059121;28;20206;-84
2021/04/06 02:07:53;;;;;;;1.10;0.60;;;;;;;-1.17;90.01;99657.53;5067464;28;20210;-83
2021/04/06 02:10:19;;;;;;;0.50;0.50;;;;;;;-1.18;89.62;99653.28;5075585;28;20852;-84
2021/04/06 02:12:45;;;;;;;0.40;0.40;;;;;;;-1.18;89.13;99659.25;5070848;28;20225;-80
2021/04/06 02:15:14;;;;;;;1.50;0.57;;;;;;;-1.22;88.83;99663.47;5073498;28;20491;-85
2021/04/06 02:17:50;;;;;;;1.23;0.50;;;;;;;-1.27;88.61;99662.53;5070686;28;20208;-85
2021/04/06 02:20:24;;;;;;;0.40;0.40;;;;;;;-1.25;88.08;99663.44;5073169;28;20215;-82
2021/04/06 02:22:58;;;;;;;0.30;0.30;;;;;;;-1.26;87.69;99664.25;5068995;28;20590;-84
2021/04/06 02:25:24;;;;;;;0.30;0.30;;;;;;;-1.30;87.76;99664.19;5078315;28;20311;-82
2021/04/06 02:27:50;;;;;;;1.17;0.43;;;;;;;-1.27;87.44;99665.09;5065141;28;20575;-81
2021/04/06 02:30:18;;;;;;;2.13;0.40;;;;;;;-1.25;87.30;99663.44;5069943;28;20193;-81
2021/04/06 02:32:44;;;;;;;0.97;0.40;;;;;;;-1.29;87.17;99674.47;5064157;28;20221;-82
2021/04/06 02:35:12;;;;;;;0.60;0.50;;;;;;;-1.47;87.70;99661.31;5068510;28;20197;-82
2021/04/06 02:37:41;;;;;;;0.77;0.43;;;;;;;-1.57;87.93;99677.38;5067619;28;20633;-81
2021/04/06 02:40:09;;;;;;;0.90;0.67;;;;;;;-1.62;88.17;99670.47;5068374;28;20223;-82
2021/04/06 02:42:37;;;;;;;0.83;0.40;;;;;;;-1.68;88.51;99680.59;5067811;28;20736;-83
2021/04/06 02:45:09;;;;;;;2.57;0.60;;;;;;;-1.71;88.10;99677.97;5066954;28;20206;-81
2021/04/06 02:47:39;;;;;;;0.90;0.87;;;;;;;-1.61;88.08;99679.00;5059795;28;20630;-81
2021/04/06 02:50:07;;;;;;;1.20;0.73;;;;;;;-1.70;87.92;99681.41;5060249;28;20201;-83
2021/04/06 02:52:34;;;;;;;0.87;0.47;;;;;;;-1.87;87.88;99684.50;5062006;28;20251;-81
2021/04/06 02:55:01;;;;;;;0.87;0.83;;;;;;;-1.83;88.35;99675.19;5074073;28;20648;-83
2021/04/06 02:57:26;;;;;;;0.60;0.60;;;;;;;-1.93;88.15;99674.16;5068471;28;20205;-80
2021/04/06 02:59:53;;;;;;;0.80;0.80;;;;;;;-1.95;88.15;99675.81;5060253;28;20246;-84
2021/04/06 03:02:20;;;;;;;0.80;0.80;;;;;;;-1.88;87.98;99674.25;5065528;28;20233;-83
2021/04/06 03:04:48;;;;;;;1.20;1.10;;;;;;;-1.89;87.70;99677.63;5065182;28;20583;-83
2021/04/06 03:07:22;;;;;;;1.50;1.40;;;;;;;-2.01;87.70;99680.81;5059725;28;20250;-84
2021/04/06 03:09:56;;;;;;;1.80;1.70;;;;;;;-2.10;88.31;99678.97;5067203;28;20200;-87
2021/04/06 03:12:28;;;;;;;2.17;1.80;;;;;;;-2.06;88.29;99673.06;5070975;28;20220;-84
2021/04/06 03:14:54;;;;;;;2.20;1.40;;;;;;;-2.06;87.91;99675.63;5060248;28;20195;-85
2021/04/06 03:17:20;;;;;;;3.00;2.00;;;;;;;-2.04;87.88;99673.97;5072802;28;20201;-82
2021/04/06 03:19:54;;;;;;;2.73;2.03;;;;;;;-2.09;88.70;99675.56;5067466;28;20210;-84
2021/04/06 03:22:20;;;;;;;2.53;2.33;;;;;;;-2.07;88.34;99667.91;5067342;28;20584;-83
2021/04/06 03:24:46;;;;;;;3.13;2.30;;;;;;;-2.08;88.44;99669.63;5075763;28;20212;-82
2021/04/06 03:27:12;;;;;;;2.87;2.60;;;;;;;-2.01;88.51;99660.38;5071062;28;20198;-83
2021/04/06 03:29:39;;;;;;;4.13;2.40;;;;;;;-2.07;88.26;99671.34;5067007;28;20291;-84
2021/04/06 03:32:06;;;;;;;2.60;2.40;;;;;;;-2.08;88.32;99671.28;5068773;28;20271;-85
2021/04/06 03:34:37;;;;;;;2.77;2.20;;;;;;;-2.04;88.17;99673.09;5067934;28;20204;-83
2021/04/06 03:37:05;;;;;;;2.60;2.40;;;;;;;-1.94;88.35;99667.34;5071685;28;20225;-85
2021/04/06 03:39:32;;;;;;;5.67;2.80;;;;;;;-1.95;88.28;99665.59;5067388;28;20204;-82
2021/04/06 03:41:58;;;;;;;2.87;2.67;;;;;;;-1.98;88.51;99665.56;5070945;28;20222;-81
2021/04/06 03:44:27;;;;;;;3.03;2.67;;;;;;;-1.96;88.59;99670.66;5067434;28;20246;-84
2021/04/06 03:46:56;;;;;;;2.70;2.33;;;;;;;-1.88;88.56;99664.03;5071870;28;20202;-83
2021/04/06 03:49:26;;;;;;;2.93;2.37;;;;;;;-1.74;88.30;99674.53;5068435;28;20201;-84
2021/04/06 03:54:38;;;;;;;8.17;2.70;;;;;;;-1.79;88.49;99676.97;4942288;22;20240;-79
2021/04/06 03:57:25;;;;;;;4.50;3.23;;;;;;;-1.68;88.39;99684.84;5086841;28;20204;-79
2021/04/06 03:59:51;;;;;;;6.67;3.20;;;;;;;-1.67;88.65;99691.69;5077907;28;20204;-79
2021/04/06 04:02:17;;;;;;;5.63;3.33;;;;;;;-1.64;88.69;99684.94;5083891;28;20205;-78
2021/04/06 04:04:43;;;;;;;5.30;4.60;;;;;;;-1.55;89.35;99686.78;5070320;28;20293;-79
2021/04/06 04:07:10;;;;;;;4.97;4.40;;;;;;;-1.48;88.66;99678.38;5077944;28;20302;-79
2021/04/06 04:09:37;;;;;;;7.90;4.40;;;;;;;-1.32;88.82;99687.19;5068053;28;20683;-79
2021/04/06 04:12:03;;;;;;;4.57;4.17;;;;;;;-1.22;88.91;99691.63;5078778;28;20211;-78
2021/04/06 04:14:29;;;;;;;5.10;4.67;;;;;;;-1.22;88.78;99686.50;5064359;28;20237;-78
2021/04/06 04:16:55;;;;;;;5.93;4.87;;;;;;;-1.23;88.76;99691.59;5078985;28;20206;-78
2021/04/06 04:19:22;;;;;;;5.33;4.83;;;;;;;-1.14;88.99;99698.56;5067735;28;20714;-79
2021/04/06 04:21:48;;;;;;;4.93;4.53;;;;;;;-1.11;88.81;99696.03;5077865;28;20225;-79
2021/04/06 04:24:14;;;;;;;4.97;4.47;;;;;;;-1.04;88.51;99690.19;5058990;28;20842;-79
2021/04/06 04:26:41;;;;;;;5.23;4.37;;;;;;;-0.92;88.50;99692.09;5070683;28;20623;-79
2021/04/06 04:29:07;;;;;;;6.00;3.77;;;;;;;-0.88;88.57;99681.06;5073633;28;20206;-79
2021/04/06 04:31:33;;;;;;;5.27;4.77;;;;;;;-0.86;88.34;99684.50;5078913;28;20197;-79
2021/04/06 04:33:59;;;;;;;3.70;3.40;;;;;;;-0.75;88.02;99688.09;5069981;28;20283;-79
2021/04/06 04:36:25;;;;;;;3.40;2.97;;;;;;;-0.79;88.08;99676.06;5075702;28;20241;-79
2021/04/06 04:38:51;;;;;;;4.00;3.60;;;;;;;-0.80;88.22;99674.34;5074508;28;20809;-79
2021/04/06 04:41:16;;;;;;;3.60;3.20;;;;;;;-0.77;88.29;99676.06;5074877;28;20256;-80
2021/04/06 04:43:43;;;;;;;3.63;3.30;;;;;;;-0.66;88.37;99684.78;5068958;28;20216;-79
2021/04/06 04:46:09;;;;;;;3.07;2.77;;;;;;;-0.60;87.66;99678.03;5077849;28;20209;-80
2021/04/06 04:48:35;;;;;;;5.60;3.47;;;;;;;-0.64;87.53;99689.09;5079193;28;20631;-79
2021/04/06 04:51:01;;;;;;;5.13;3.33;;;;;;;-0.59;87.38;99689.16;5077995;28;20205;-79
2021/04/06 04:53:28;;;;;;;3.40;3.00;;;;;;;-0.65;86.84;99689.94;5078222;28;20210;-80
2021/04/06 04:55:54;;;;;;;5.40;3.17;;;;;;;-0.64;87.16;99690.78;5076313;28;20223;-80
2021/04/06 04:58:20;;;;;;;3.90;3.20;;;;;;;-0.64;87.36;99680.53;5079958;28;20658;-79
2021/04/06 05:00:46;;;;;;;4.50;3.40;;;;;;;-0.68;87.35;99682.19;5071328;28;20229;-79
2021/04/06 05:03:12;;;;;;;4.83;3.33;;;;;;;-0.63;87.46;99684.84;5069990;28;20209;-79
2021/04/06 05:05:38;;;;;;;4.70;3.27;;;;;;;-0.64;87.51;99680.53;5074290;28;20726;-79
2021/04/06 05:08:05;;;;;;;3.70;3.40;;;;;;;-0.62;87.46;99683.97;5068506;28;20200;-80
2021/04/06 05:10:31;;;;;;;4.63;3.80;;;;;;;-0.65;87.53;99679.69;5081556;28;20226;-79
2021/04/06 05:12:57;;;;;;;3.23;2.90;;;;;;;-0.65;87.64;99686.53;5073257;28;20617;-79
2021/04/06 05:15:23;;;;;;;4.60;3.10;;;;;;;-0.57;87.57;99686.63;5076905;28;20229;-79
2021/04/06 05:17:49;;;;;;;4.80;3.00;;;;;;;-0.57;87.65;99690.06;5067360;28;20210;-80
2021/04/06 05:20:16;;;;;;;4.33;3.50;;;;;;;-0.53;87.47;99689.25;5077605;28;20224;-80
2021/04/06 05:22:42;;;;;;;4.33;3.37;;;;;;;-0.52;87.44;99687.53;5073589;28;20202;-80
2021/04/06 05:25:09;;;;;;;5.10;3.23;;;;;;;-0.46;87.43;99693.59;5070562;28;20214;-80
2021/04/06 05:27:35;;;;;;;4.97;2.90;;;;;;;-0.44;87.42;99689.38;5083209;28;20213;-79
2021/04/06 05:30:01;;;;;;;6.43;3.37;;;;;;;-0.45;87.71;99697.91;5077787;28;20819;-80
2021/04/06 05:32:27;;;;;;;4.67;3.27;;;;;;;-0.52;88.58;99696.09;5071097;28;20603;-79
2021/04/06 05:34:54;;;;;;;5.07;4.00;;;;;;;-0.53;89.64;99701.22;5065889;28;20276;-79
2021/04/06 05:37:20;;;;;;;4.73;3.70;;;;;;;-0.64;90.47;99701.03;5064838;28;20217;-79
2021/04/06 05:39:46;;;;;;;6.67;4.43;;;;;;;-0.69;91.51;99706.09;5076145;28;20211;-80
2021/04/06 05:42:13;;;;;;;5.53;4.93;;;;;;;-0.65;91.70;99705.31;5073264;28;20199;-79
2021/04/06 05:44:41;;;;;;;5.83;5.17;;;;;;;-0.70;92.10;99709.50;5080571;28;20229;-79
2021/04/06 05:47:14;;;;;;;5.33;4.83;;;;;;;-0.64;92.16;99703.59;5066194;28;20223;-79
2021/04/06 05:49:40;;;;;;;6.30;5.07;;;;;;;-0.56;91.76;99719.09;5077874;28;20218;-79
2021/04/06 05:52:07;;;;;;;5.10;4.60;;;;;;;-0.49;91.12;99726.91;5067218;28;20198;-80
2021/04/06 05:54:33;;;;;;;7.00;4.33;;;;;;;-0.42;90.12;99722.69;5062047;28;20388;-79
2021/04/06 05:56:59;;;;;;;3.90;3.60;;;;;;;-0.37;89.63;99715.09;5063955;28;20266;-79
2021/04/06 05:59:25;;;;;;;4.30;3.63;;;;;;;-0.35;89.59;99713.41;5070752;28;20299;-79
2021/04/06 06:01:51;;;;;;;4.37;3.20;;;;;;;-0.32;88.74;99713.44;5067320;28;20323;-79
2021/04/06 06:04:18;;;;;;;4.03;3.60;;;;;;;-0.21;88.55;99717.88;5050856;28;20233;-79
2021/04/06 06:06:45;;;;;;;5.20;3.30;;;;;;;-0.09;88.02;99713.75;5047783;28;20210;-79
2021/04/06 06:09:13;;;;;;;3.17;2.97;;;;;;;-0.07;87.89;99702.66;5059170;28;20210;-79
2021/04/06 06:11:59;;;;;;;4.10;3.70;;;;;;;0.01;87.58;99707.03;5047130;28;20200;-79
2021/04/06 06:14:26;;;;;;;3.20;2.90;;;;;;;0.04;87.30;99715.63;5047775;28;20281;-75
2021/04/06 06:16:52;;;;;;;2.63;2.43;;;;;;;0.16;87.03;99712.34;5045304;28;20218;-76
2021/04/06 06:19:18;;;;;;;3.13;2.90;;;;;;;0.12;86.44;99724.28;5044639;28;20213;-76
2021/04/06 06:21:47;;;;;;;3.53;3.13;;;;;;;0.15;86.42;99724.28;5044966;28;20232;-75
2021/04/06 06:24:24;;;;;;;6.17;2.80;;;;;;;0.04;86.67;99725.88;5044916;28;20226;-75
2021/04/06 06:26:50;;;;;;;2.70;2.40;;;;;;;0.09;86.37;99725.94;5045368;28;20206;-75
2021/04/06 06:29:19;;;;;;;3.00;2.60;;;;;;;0.09;86.34;99723.38;5045108;28;20261;-76
2021/04/06 06:31:46;;;;;;;3.40;2.27;;;;;;;0.15;86.17;99720.88;5045094;28;20199;-76
2021/04/06 06:34:33;;;;;;;3.77;2.50;;;;;;;0.18;86.42;99719.22;5044073;28;20235;-75
2021/04/06 06:37:11;;;;;;;5.27;2.13;;;;;;;0.16;86.74;99728.59;5040745;28;20680;-75
2021/04/06 06:39:40;;;;;;;2.63;2.43;;;;;;;0.21;85.97;99725.22;5047350;28;20202;-74
2021/04/06 06:42:09;;;;;;;5.80;2.63;;;;;;;0.25;85.98;99725.25;5042099;28;20259;-75
2021/04/06 06:44:36;;;;;;;4.17;2.70;;;;;;;0.28;86.04;99725.31;5045590;28;20229;-74
2021/04/06 06:47:04;;;;;;;3.70;2.33;;;;;;;0.29;85.69;99724.44;5042736;28;20259;-74
2021/04/06 06:49:36;;;;;;;4.07;1.87;;;;;;;0.22;85.42;99735.50;5042644;28;20217;-74
2021/04/06 06:52:03;;;;;;;3.43;2.90;;;;;;;0.33;85.26;99728.75;5041858;28;20203;-75
2021/04/06 06:54:40;;;;;;;2.30;1.70;;;;;;;0.32;84.96;99729.63;5045493;28;20234;-75
2021/04/06 06:57:08;;;;;;;6.07;2.70;;;;;;;0.30;85.23;99733.03;5042408;28;20197;-75
2021/04/06 06:59:39;;;;;;;4.97;3.00;;;;;;;0.35;84.99;99732.22;5047624;28;20209;-75
2021/04/06 07:02:21;;;;;;;4.60;2.80;;;;;;;0.46;84.47;99729.78;5041734;28;20217;-75
2021/04/06 07:04:47;;;;;;;4.70;2.40;;;;;;;0.42;83.66;99732.28;5048948;28;20222;-75
2021/04/06 07:07:13;;;;;;;3.97;2.03;;;;;;;0.48;84.04;99733.22;5046459;28;20234;-75
2021/04/06 07:09:40;;;;;;;5.60;2.03;;;;;;;0.43;84.49;99734.88;5047266;28;20204;-75
2021/04/06 07:12:08;;;;;;;5.63;2.47;;;;;;;0.46;84.54;99736.63;5041481;28;20192;-75
2021/04/06 07:14:38;;;;;;;6.50;2.57;;;;;;;0.52;83.67;99741.81;5045683;28;20225;-75
2021/04/06 07:17:05;;;;;;;3.50;1.93;;;;;;;0.63;83.80;99736.78;5041461;28;20673;-75
2021/04/06 07:19:34;;;;;;;6.73;2.40;;;;;;;0.70;83.27;99731.72;5045450;28;20203;-75
2021/04/06 07:22:03;;;;;;;4.83;2.10;;;;;;;0.70;82.97;99739.44;5039921;28;20227;-75
2021/04/06 07:24:31;;;;;;;3.73;2.00;;;;;;;0.74;83.16;99725.75;5044621;28;20234;-75
2021/04/06 07:27:03;;;;;;;4.13;2.03;;;;;;;0.80;82.40;99732.66;5040390;28;20200;-75
2021/04/06 07:29:30;;;;;;;4.57;2.23;;;;;;;0.82;81.36;99720.69;5043674;28;20215;-76
2021/04/06 07:31:57;;;;;;;3.53;1.90;;;;;;;0.96;81.34;99721.66;5044715;28;20730;-75
2021/04/06 07:34:24;;;;;;;6.60;2.20;;;;;;;1.07;81.59;99729.47;5044175;28;20604;-76
2021/04/06 07:36:53;;;;;;;3.87;1.90;;;;;;;1.12;80.61;99717.50;5044618;28;20202;-75
2021/04/06 07:39:19;;;;;;;6.73;1.90;;;;;;;1.18;80.03;99717.56;5043526;28;20212;-75
2021/04/06 07:41:47;;;;;;;3.07;1.93;;;;;;;0.99;79.17;99718.25;5043586;28;20233;-75
2021/04/06 07:44:15;;;;;;;4.87;2.40;;;;;;;1.05;80.43;99720.91;5042423;28;20801;-75
2021/04/06 07:46:43;;;;;;;4.57;2.30;;;;;;;1.14;80.02;99715.81;5043592;28;20633;-76
2021/04/06 07:49:10;;;;;;;6.30;2.07;;;;;;;1.24;80.01;99718.47;5041265;28;20292;-75
2021/04/06 07:51:47;;;;;;;6.33;2.07;;;;;;;1.30;80.11;99718.50;5047229;28;20206;-76
2021/04/06 07:54:15;;;;;;;6.23;2.67;;;;;;;1.32;80.43;99724.50;5043762;28;20233;-75
2021/04/06 07:56:50;;;;;;;5.43;2.30;;;;;;;1.38;80.18;99719.41;5043598;28;20256;-76
2021/04/06 07:59:44;;;;;;;3.90;2.30;;;;;;;1.49;78.76;99714.34;5043396;28;20206;-76
2021/04/06 08:02:29;;;;;;;3.50;2.20;;;;;;;1.47;78.85;99716.06;5049007;28;20280;-75
2021/04/06 08:04:58;;;;;;;3.60;2.13;;;;;;;1.48;77.46;99715.19;5046429;28;20223;-75
2021/04/06 08:07:27;;;;;;;4.23;2.10;;;;;;;1.57;77.24;99722.97;5040147;28;20203;-75
2021/04/06 08:09:54;;;;;;;3.73;2.10;;;;;;;1.49;77.32;99732.34;5049031;28;20265;-75
2021/04/06 08:12:22;;;;;;;9.20;3.47;;;;;;;1.62;78.13;99725.56;5046559;28;20198;-75
2021/04/06 08:14:51;;;;;;;10.67;3.07;;;;;;;1.44;77.75;99728.88;5043931;28;20575;-78
2021/04/06 08:17:42;;;;;;;3.60;1.83;;;;;;;1.39;78.48;99736.56;5049304;28;20578;-78
2021/04/06 08:20:18;;;;;;;5.77;2.37;;;;;;;1.58;79.39;99735.81;4712466;28;10001124;-79
2021/04/06 08:22:50;;;;;;;6.20;3.03;;;;;;;1.78;78.84;99727.34;5051198;28;20264;-80
2021/04/06 08:25:42;;;;;;;8.80;2.30;;;;;;;1.53;80.82;99736.66;5057952;28;20223;-80
2021/04/06 08:28:27;;;;;;;5.27;2.90;;;;;;;1.08;82.94;99745.75;5047009;28;20201;-81
2021/04/06 08:30:54;;;;;;;2.90;2.40;;;;;;;0.99;84.17;99734.56;5049644;28;20199;-79
2021/04/06 08:33:27;;;;;;;4.70;2.40;;;;;;;1.06;84.01;99743.16;5047183;28;20210;-81
2021/04/06 08:36:05;;;;;;;7.63;4.00;;;;;;;1.23;84.83;99743.31;5047302;28;20210;-78
2021/04/06 08:38:43;;;;;;;8.40;2.70;;;;;;;1.17;84.60;99746.69;5046885;28;20249;-77
2021/04/06 08:41:13;;;;;;;8.03;3.13;;;;;;;1.34;85.26;99749.38;5056203;28;20229;-76
2021/04/06 08:43:43;;;;;;;4.53;1.93;;;;;;;1.28;81.91;99733.06;5044783;28;20678;-76
2021/04/06 08:46:12;;;;;;;6.00;2.30;;;;;;;1.39;81.67;99741.72;5050113;28;20207;-76
2021/04/06 08:48:50;;;;;;;4.17;1.90;;;;;;;1.50;79.39;99740.06;5049085;28;20314;-76
2021/04/06 08:51:18;;;;;;;4.43;2.10;;;;;;;1.57;77.71;99735.84;5054114;28;20220;-76
2021/04/06 08:53:44;;;;;;;3.63;2.10;;;;;;;1.71;77.20;99731.63;5050115;28;20208;-75
2021/04/06 08:56:11;;;;;;;4.80;2.30;;;;;;;1.82;76.69;99731.66;5051395;28;20209;-76
2021/04/06 08:58:37;;;;;;;6.43;3.10;;;;;;;1.91;77.15;99734.28;5048316;28;20197;-76
2021/04/06 09:01:05;;;;;;;6.87;3.03;;;;;;;2.04;76.93;99729.19;5052556;28;20279;-76
2021/04/06 09:03:32;;;;;;;4.67;2.13;;;;;;;2.23;75.59;99733.56;5044260;28;20217;-75
2021/04/06 09:06:09;;;;;;;5.10;2.20;;;;;;;2.20;72.38;99723.28;5041730;28;20203;-76
2021/04/06 09:08:48;;;;;;;4.70;2.63;;;;;;;2.29;73.52;99710.41;5043363;28;20206;-76
2021/04/06 09:11:15;;;;;;;3.40;1.83;;;;;;;2.31;72.94;99724.13;5042892;28;20190;-74
2021/04/06 09:13:41;;;;;;;7.80;2.20;;;;;;;2.30;71.14;99718.97;5048698;28;20240;-75
2021/04/06 09:16:09;;;;;;;6.00;2.00;;;;;;;2.33;71.11;99719.00;5048203;28;20205;-75
2021/04/06 09:18:37;;;;;;;5.07;2.20;;;;;;;2.42;69.68;99715.56;5047061;28;20208;-75
2021/04/06 09:21:07;;;;;;;4.63;2.20;;;;;;;2.42;67.51;99708.72;5048687;28;20578;-75
2021/04/06 09:23:34;;;;;;;3.30;1.60;;;;;;;2.68;70.20;99705.34;5050094;28;20244;-76
2021/04/06 09:26:04;;;;;;;4.80;1.87;;;;;;;2.80;68.32;99707.06;5049817;28;20201;-75
2021/04/06 09:28:30;;;;;;;4.10;1.77;;;;;;;2.90;69.21;99694.19;5052087;28;20227;-75
2021/04/06 09:30:56;;;;;;;4.83;1.80;;;;;;;3.20;69.67;99707.06;5052156;28;20252;-75
2021/04/06 09:33:23;;;;;;;10.03;2.10;;;;;;;2.81;66.88;99699.31;5062234;28;20213;-75
2021/04/06 09:35:53;;;;;;;4.43;1.40;;;;;;;2.88;67.96;99697.63;5063125;28;20236;-75
2021/04/06 09:38:20;;;;;;;6.73;2.00;;;;;;;3.02;69.14;99695.91;5067638;28;20206;-76
2021/04/06 09:40:47;;;;;;;5.13;2.67;;;;;;;3.15;69.38;99694.16;5062405;28;20232;-75
2021/04/06 09:43:13;;;;;;;6.43;2.30;;;;;;;3.26;68.81;99694.16;5067227;28;20203;-75
2021/04/06 09:45:39;;;;;;;6.83;1.90;;;;;;;3.17;65.68;99693.31;5063099;28;20275;-75
2021/04/06 09:48:07;;;;;;;8.20;1.97;;;;;;;3.14;64.49;99695.88;5059288;28;20217;-76
2021/04/06 09:50:33;;;;;;;5.73;1.60;;;;;;;3.37;66.29;99687.28;5059186;28;20208;-75
2021/04/06 09:53:00;;;;;;;6.17;2.27;;;;;;;3.34;65.24;99682.97;5059106;28;20783;-76
2021/04/06 09:55:30;;;;;;;6.83;1.67;;;;;;;3.54;67.42;99679.50;5063849;28;20228;-76
2021/04/06 09:58:00;;;;;;;5.03;1.53;;;;;;;3.38;64.70;99682.09;5049374;28;20211;-76
2021/04/06 10:00:29;;;;;;;5.63;1.93;;;;;;;3.30;64.09;99678.69;5054650;28;20737;-76
2021/04/06 10:03:07;;;;;;;4.93;1.90;;;;;;;3.07;65.65;99678.72;5046903;28;20208;-77
2021/04/06 10:05:35;;;;;;;5.57;3.30;;;;;;;3.19;63.25;99675.25;5061729;28;20241;-80
2021/04/06 10:08:03;;;;;;;8.57;2.90;;;;;;;3.37;61.17;99687.28;5061636;28;20579;-77
2021/04/06 10:10:31;;;;;;;6.57;1.80;;;;;;;3.09;63.03;99679.59;5064843;28;20207;-80
2021/04/06 10:12:59;;;;;;;6.10;2.20;;;;;;;2.11;73.97;99703.47;5061563;28;20204;-79
2021/04/06 10:15:27;;;;;;;9.73;2.63;;;;;;;0.97;82.27;99732.81;5064546;28;20220;-79
2021/04/06 10:17:55;;;;;;;7.07;3.27;;;;;;;0.57;85.87;99725.59;5058398;28;20206;-81
2021/04/06 10:20:23;;;;;;;9.77;2.97;;;;;;;0.57;87.11;99706.75;5061591;28;20213;-81
2021/04/06 10:22:51;;;;;;;4.53;2.27;;;;;;;0.41;86.89;99694.63;5051544;28;20209;-75
2021/04/06 10:25:20;;;;;;;6.13;3.13;;;;;;;0.52;86.99;99687.91;5069647;28;20244;-75
2021/04/06 10:27:48;;;;;;;5.97;2.87;;;;;;;0.81;85.98;99683.00;5060609;28;20205;-75
2021/04/06 10:30:18;;;;;;;7.73;2.40;;;;;;;1.40;85.14;99676.56;5057018;28;20225;-79
2021/04/06 10:32:46;;;;;;;5.70;2.50;;;;;;;1.83;83.30;99668.22;5052093;28;20249;-82
2021/04/06 10:35:14;;;;;;;8.47;2.47;;;;;;;2.19;80.64;99665.75;5076228;28;20225;-80
2021/04/06 10:37:44;;;;;;;6.93;2.10;;;;;;;2.35;79.17;99668.34;5067554;28;20208;-81
2021/04/06 10:40:27;;;;;;;5.63;2.20;;;;;;;2.38;77.88;99668.38;5067251;28;20197;-82
2021/04/06 10:42:56;;;;;;;7.07;2.20;;;;;;;2.36;77.88;99667.53;5044350;28;20193;-81
2021/04/06 10:45:24;;;;;;;7.73;2.40;;;;;;;2.38;76.19;99669.22;5066596;28;20233;-80
2021/04/06 10:47:52;;;;;;;4.63;2.70;;;;;;;2.39;76.02;99675.22;5059446;28;20212;-80
2021/04/06 10:50:18;;;;;;;5.87;2.17;;;;;;;2.15;77.92;99676.03;5067623;28;20210;-81
2021/04/06 10:52:44;;;;;;;5.97;2.27;;;;;;;2.02;81.24;99677.69;5040569;28;20233;-80
2021/04/06 10:55:10;;;;;;;5.57;2.47;;;;;;;1.54;83.05;99692.06;5072065;28;20761;-79
2021/04/06 10:57:39;;;;;;;3.30;2.43;;;;;;;1.34;82.98;99697.97;5057149;28;20218;-79
2021/04/06 11:00:22;;;;;;;5.67;2.63;;;;;;;1.19;83.70;99685.88;5063940;28;20194;-79
2021/04/06 11:02:49;;;;;;;7.27;2.07;;;;;;;1.04;84.90;99672.06;5051648;28;20762;-78
2021/04/06 11:05:29;;;;;;;5.83;2.40;;;;;;;1.16;85.13;99667.00;5064299;28;20229;-78
2021/04/06 11:07:55;;;;;;;5.50;2.50;;;;;;;1.53;85.83;99647.50;5041492;28;20201;-78
2021/04/06 11:10:23;;;;;;;8.60;2.43;;;;;;;1.84;85.46;99649.34;5067194;28;20589;-78
2021/04/06 11:12:51;;;;;;;3.97;1.83;;;;;;;1.79;83.41;99646.75;5059839;28;20205;-79
2021/04/06 11:15:17;;;;;;;6.20;2.23;;;;;;;2.09;81.72;99638.25;5065392;28;20213;-79
2021/04/06 11:17:45;;;;;;;6.47;2.23;;;;;;;2.10;77.59;99626.25;5071525;28;20240;-79
2021/04/06 11:20:12;;;;;;;5.60;2.20;;;;;;;2.51;76.87;99625.47;5059537;28;20296;-77
2021/04/06 11:22:38;;;;;;;5.80;1.97;;;;;;;2.83;73.64;99615.13;5034792;28;20228;-76
2021/04/06 11:25:04;;;;;;;3.73;1.83;;;;;;;3.08;74.39;99609.97;5069972;28;20217;-77
2021/04/06 11:27:30;;;;;;;6.73;1.77;;;;;;;3.69;71.41;99612.34;5066332;28;20475;-76
2021/04/06 11:29:59;;;;;;;4.60;1.77;;;;;;;3.92;65.48;99601.03;5059891;28;20326;-77
2021/04/06 11:32:25;;;;;;;3.47;1.80;;;;;;;3.94;66.17;99605.34;5051781;28;20625;-76
2021/04/06 11:34:51;;;;;;;4.03;2.47;;;;;;;3.66;63.38;99607.19;5060449;28;20215;-77
2021/04/06 11:37:17;;;;;;;4.33;2.17;;;;;;;3.06;65.38;99634.88;5068014;28;20210;-76
2021/04/06 11:39:45;;;;;;;2.93;2.00;;;;;;;2.30;70.98;99629.75;5059168;28;20207;-77
2021/04/06 11:42:13;;;;;;;5.80;2.77;;;;;;;2.22;71.65;99623.72;5041402;28;20228;-76
2021/04/06 11:44:40;;;;;;;5.37;1.80;;;;;;;2.36;72.01;99622.00;5058036;28;20222;-76
2021/04/06 11:47:07;;;;;;;4.93;1.90;;;;;;;3.38;70.31;99609.00;5070006;28;20211;-76
2021/04/06 11:49:34;;;;;;;5.50;2.10;;;;;;;4.46;64.73;99596.41;5057102;28;20259;-78